sensor_id;sensor_type;location;lat;lon;timestamp;pressure;altitude;pressure_sealevel;temperature;humidity
44148;BME280;29810;55.848;37.368;2023-03-20T00:00:40;99604.91;;;-1.02;68.37
44148;BME280;29810;55.848;37.368;2023-03-20T00:03:43;99599.84;;;-0.98;68.21
44148;BME280;29810;55.848;37.368;2023-03-20T00:06:45;99603.34;;;-0.93;68.32
44148;BME280;29810;55.848;37.368;2023-03-20T00:09:46;99607.75;;;-0.85;68.08
44148;BME280;29810;55.848;37.368;2023-03-20T00:12:49;99597.69;;;-0.71;67.85
44148;BME280;29810;55.848;37.368;2023-03-20T00:15:52;99591.84;;;-0.62;67.62
44148;BME280;29810;55.848;37.368;2023-03-20T00:18:54;99600.41;;;-0.61;67.51
44148;BME280;29810;55.848;37.368;2023-03-20T00:21:57;99589.25;;;-0.67;67.30
44148;BME280;29810;55.848;37.368;2023-03-20T00:24:59;99597.00;;;-0.60;67.43
44148;BME280;29810;55.848;37.368;2023-03-20T00:28:03;99591.00;;;-0.62;67.16
44148;BME280;29810;55.848;37.368;2023-03-20T00:31:38;99595.25;;;-0.63;67.25
44148;BME280;29810;55.848;37.368;2023-03-20T00:34:40;99587.78;;;-0.46;67.84
44148;BME280;29810;55.848;37.368;2023-03-20T00:37:41;99585.91;;;-0.61;67.45
44148;BME280;29810;55.848;37.368;2023-03-20T00:40:43;99579.16;;;-0.54;67.38
44148;BME280;29810;55.848;37.368;2023-03-20T00:43:47;99580.69;;;-0.65;67.22
44148;BME280;29810;55.848;37.368;2023-03-20T00:46:58;99572.84;;;-0.79;67.72
44148;BME280;29810;55.848;37.368;2023-03-20T00:50:05;99573.66;;;-0.82;68.08
44148;BME280;29810;55.848;37.368;2023-03-20T00:53:11;99575.31;;;-0.84;67.83
44148;BME280;29810;55.848;37.368;2023-03-20T00:56:39;99579.81;;;-0.68;67.77
44148;BME280;29810;55.848;37.368;2023-03-20T01:03:14;99573.53;;;-0.88;68.45
44148;BME280;29810;55.848;37.368;2023-03-20T01:06:17;99578.62;;;-0.91;68.70
44148;BME280;29810;55.848;37.368;2023-03-20T01:09:19;99576.09;;;-0.90;68.15
44148;BME280;29810;55.848;37.368;2023-03-20T01:12:21;99576.19;;;-0.84;67.95
44148;BME280;29810;55.848;37.368;2023-03-20T01:15:25;99583.00;;;-0.84;67.73
44148;BME280;29810;55.848;37.368;2023-03-20T01:18:28;99572.75;;;-0.84;67.70
44148;BME280;29810;55.848;37.368;2023-03-20T01:21:29;99573.50;;;-0.91;67.85
44148;BME280;29810;55.848;37.368;2023-03-20T01:24:31;99566.56;;;-0.98;68.24
44148;BME280;29810;55.848;37.368;2023-03-20T01:27:33;99574.19;;;-1.03;68.42
44148;BME280;29810;55.848;37.368;2023-03-20T01:30:35;99566.69;;;-0.89;68.38
44148;BME280;29810;55.848;37.368;2023-03-20T01:33:36;99565.03;;;-0.87;68.45
44148;BME280;29810;55.848;37.368;2023-03-20T01:36:39;99563.34;;;-0.85;68.40
44148;BME280;29810;55.848;37.368;2023-03-20T01:39:40;99563.28;;;-0.90;68.37
44148;BME280;29810;55.848;37.368;2023-03-20T01:42:42;99559.63;;;-1.06;68.19
44148;BME280;29810;55.848;37.368;2023-03-20T01:52:22;99538.47;;;-0.94;68.59
44148;BME280;29810;55.848;37.368;2023-03-20T01:55:25;99544.34;;;-1.01;68.19
44148;BME280;29810;55.848;37.368;2023-03-20T01:58:34;99537.44;;;-1.07;68.34
44148;BME280;29810;55.848;37.368;2023-03-20T02:01:38;99543.47;;;-1.03;68.73
44148;BME280;29810;55.848;37.368;2023-03-20T02:04:44;99535.75;;;-1.05;68.35
44148;BME280;29810;55.848;37.368;2023-03-20T02:07:50;99543.37;;;-1.08;68.03
44148;BME280;29810;55.848;37.368;2023-03-20T02:10:56;99533.38;;;-0.94;67.78
44148;BME280;29810;55.848;37.368;2023-03-20T02:13:59;99531.59;;;-0.98;67.56
44148;BME280;29810;55.848;37.368;2023-03-20T02:17:05;99543.53;;;-0.97;67.68
44148;BME280;29810;55.848;37.368;2023-03-20T02:27:01;99523.16;;;-0.91;67.59
44148;BME280;29810;55.848;37.368;2023-03-20T02:30:42;99514.56;;;-0.93;67.33
44148;BME280;29810;55.848;37.368;2023-03-20T02:34:14;99513.97;;;-0.75;66.48
44148;BME280;29810;55.848;37.368;2023-03-20T02:37:22;99510.69;;;-0.68;66.04
44148;BME280;29810;55.848;37.368;2023-03-20T02:41:46;99505.56;;;-0.68;65.10
44148;BME280;29810;55.848;37.368;2023-03-20T02:44:29;99508.34;;;-0.49;65.02
44148;BME280;29810;55.848;37.368;2023-03-20T02:47:46;99509.16;;;-0.53;64.91
44148;BME280;29810;55.848;37.368;2023-03-20T03:00:59;99502.72;;;-0.20;63.18
44148;BME280;29810;55.848;37.368;2023-03-20T03:04:07;99497.69;;;-0.11;63.08
44148;BME280;29810;55.848;37.368;2023-03-20T03:07:11;99501.16;;;-0.04;62.36
44148;BME280;29810;55.848;37.368;2023-03-20T03:10:20;99496.09;;;-0.03;61.89
44148;BME280;29810;55.848;37.368;2023-03-20T03:13:26;99490.97;;;0.01;61.12
44148;BME280;29810;55.848;37.368;2023-03-20T03:16:36;99468.75;;;0.03;61.67
44148;BME280;29810;55.848;37.368;2023-03-20T03:19:41;99481.72;;;0.18;61.82
44148;BME280;29810;55.848;37.368;2023-03-20T03:22:45;99480.00;;;0.14;61.92
44148;BME280;29810;55.848;37.368;2023-03-20T03:25:47;99483.31;;;0.05;61.37
44148;BME280;29810;55.848;37.368;2023-03-20T03:28:54;99490.91;;;-0.06;61.87
44148;BME280;29810;55.848;37.368;2023-03-20T03:31:57;99482.22;;;-0.17;62.36
44148;BME280;29810;55.848;37.368;2023-03-20T03:35:00;99483.84;;;-0.25;62.58
44148;BME280;29810;55.848;37.368;2023-03-20T03:42:14;99495.56;;;-0.47;62.24
44148;BME280;29810;55.848;37.368;2023-03-20T03:45:23;99487.56;;;-0.72;62.31
44148;BME280;29810;55.848;37.368;2023-03-20T03:48:34;99473.72;;;-0.85;62.19
44148;BME280;29810;55.848;37.368;2023-03-20T03:51:39;99473.72;;;-0.87;62.34
44148;BME280;29810;55.848;37.368;2023-03-20T03:54:47;99474.59;;;-0.86;61.67
44148;BME280;29810;55.848;37.368;2023-03-20T03:57:56;99468.59;;;-0.85;60.99
44148;BME280;29810;55.848;37.368;2023-03-20T04:00:59;99468.66;;;-0.82;60.15
44148;BME280;29810;55.848;37.368;2023-03-20T04:04:06;99466.94;;;-0.85;60.26
44148;BME280;29810;55.848;37.368;2023-03-20T04:07:09;99474.69;;;-0.78;59.78
44148;BME280;29810;55.848;37.368;2023-03-20T04:10:13;99473.03;;;-0.73;59.45
44148;BME280;29810;55.848;37.368;2023-03-20T04:13:15;99464.53;;;-0.71;59.18
44148;BME280;29810;55.848;37.368;2023-03-20T04:16:20;99457.03;;;-0.57;58.98
44148;BME280;29810;55.848;37.368;2023-03-20T04:19:22;99461.44;;;-0.45;58.21
44148;BME280;29810;55.848;37.368;2023-03-20T04:22:24;99450.44;;;-0.35;57.88
44148;BME280;29810;55.848;37.368;2023-03-20T04:25:25;99444.59;;;-0.21;57.08
44148;BME280;29810;55.848;37.368;2023-03-20T04:28:28;99446.50;;;-0.03;56.16
44148;BME280;29810;55.848;37.368;2023-03-20T04:31:30;99442.41;;;0.16;55.20
44148;BME280;29810;55.848;37.368;2023-03-20T04:34:33;99434.03;;;0.34;54.17
44148;BME280;29810;55.848;37.368;2023-03-20T04:37:35;99437.50;;;0.44;53.18
44148;BME280;29810;55.848;37.368;2023-03-20T04:40:38;99438.34;;;0.43;52.92
44148;BME280;29810;55.848;37.368;2023-03-20T04:43:40;99432.38;;;0.45;52.94
44148;BME280;29810;55.848;37.368;2023-03-20T04:46:42;99436.66;;;0.48;53.13
44148;BME280;29810;55.848;37.368;2023-03-20T04:49:44;99449.56;;;0.57;53.18
44148;BME280;29810;55.848;37.368;2023-03-20T04:52:46;99445.31;;;0.62;53.21
44148;BME280;29810;55.848;37.368;2023-03-20T04:55:50;99442.84;;;0.73;53.26
44148;BME280;29810;55.848;37.368;2023-03-20T04:58:52;99442.03;;;0.82;53.06
44148;BME280;29810;55.848;37.368;2023-03-20T05:01:54;99462.63;;;0.91;53.14
44148;BME280;29810;55.848;37.368;2023-03-20T05:04:57;99450.72;;;0.99;53.01
44148;BME280;29810;55.848;37.368;2023-03-20T05:07:59;99453.34;;;1.10;52.69
44148;BME280;29810;55.848;37.368;2023-03-20T05:11:02;99451.72;;;1.36;51.94
44148;BME280;29810;55.848;37.368;2023-03-20T05:14:05;99462.16;;;1.76;51.08
44148;BME280;29810;55.848;37.368;2023-03-20T05:17:07;99457.97;;;2.15;50.20
44148;BME280;29810;55.848;37.368;2023-03-20T05:20:09;99442.53;;;2.40;49.11
44148;BME280;29810;55.848;37.368;2023-03-20T05:23:13;99445.94;;;2.63;48.39
44148;BME280;29810;55.848;37.368;2023-03-20T05:26:15;99443.38;;;2.73;47.74
44148;BME280;29810;55.848;37.368;2023-03-20T05:29:22;99451.94;;;2.86;47.89
44148;BME280;29810;55.848;37.368;2023-03-20T05:32:29;99440.75;;;3.01;47.73
44148;BME280;29810;55.848;37.368;2023-03-20T05:35:31;99443.31;;;3.10;47.55
44148;BME280;29810;55.848;37.368;2023-03-20T05:38:33;99439.81;;;3.25;47.30
44148;BME280;29810;55.848;37.368;2023-03-20T05:41:34;99438.03;;;3.33;47.04
44148;BME280;29810;55.848;37.368;2023-03-20T05:44:36;99433.72;;;3.40;46.82
44148;BME280;29810;55.848;37.368;2023-03-20T05:47:39;99447.44;;;3.51;46.55
44148;BME280;29810;55.848;37.368;2023-03-20T05:50:41;99456.03;;;3.53;46.12
44148;BME280;29810;55.848;37.368;2023-03-20T05:53:43;99449.09;;;3.66;45.87
44148;BME280;29810;55.848;37.368;2023-03-20T05:56:45;99449.94;;;3.71;45.57
44148;BME280;29810;55.848;37.368;2023-03-20T05:59:47;99453.38;;;3.64;45.32
44148;BME280;29810;55.848;37.368;2023-03-20T06:02:49;99456.81;;;3.68;45.31
44148;BME280;29810;55.848;37.368;2023-03-20T06:05:51;99453.38;;;3.67;45.09
44148;BME280;29810;55.848;37.368;2023-03-20T06:08:53;99449.97;;;3.63;44.93
44148;BME280;29810;55.848;37.368;2023-03-20T06:11:56;99455.97;;;3.69;44.89
44148;BME280;29810;55.848;37.368;2023-03-20T06:14:57;99448.12;;;3.83;44.21
44148;BME280;29810;55.848;37.368;2023-03-20T06:18:00;99446.31;;;4.00;44.21
44148;BME280;29810;55.848;37.368;2023-03-20T06:21:02;99456.53;;;4.14;43.76
44148;BME280;29810;55.848;37.368;2023-03-20T06:24:04;99449.66;;;4.11;43.65
44148;BME280;29810;55.848;37.368;2023-03-20T06:27:07;99450.44;;;4.27;43.53
44148;BME280;29810;55.848;37.368;2023-03-20T06:30:10;99448.53;;;4.48;43.17
44148;BME280;29810;55.848;37.368;2023-03-20T06:33:12;99452.06;;;4.36;42.78
44148;BME280;29810;55.848;37.368;2023-03-20T06:36:16;99452.09;;;4.35;42.78
44148;BME280;29810;55.848;37.368;2023-03-20T06:39:19;99447.44;;;4.75;42.45
44148;BME280;29810;55.848;37.368;2023-03-20T06:42:21;99438.50;;;5.09;41.97
44148;BME280;29810;55.848;37.368;2023-03-20T06:45:23;99427.91;;;5.29;41.69
44148;BME280;29810;55.848;37.368;2023-03-20T06:48:27;99436.25;;;5.54;41.27
44148;BME280;29810;55.848;37.368;2023-03-20T06:51:29;99425.97;;;5.48;41.07
44148;BME280;29810;55.848;37.368;2023-03-20T06:54:31;99427.06;;;5.28;40.88
44148;BME280;29810;55.848;37.368;2023-03-20T06:57:32;99425.41;;;5.24;41.47
44148;BME280;29810;55.848;37.368;2023-03-20T07:00:34;99419.28;;;5.30;41.62
44148;BME280;29810;55.848;37.368;2023-03-20T07:03:38;99421.91;;;5.28;41.38
44148;BME280;29810;55.848;37.368;2023-03-20T07:06:42;99420.34;;;5.13;41.22
44148;BME280;29810;55.848;37.368;2023-03-20T07:09:44;99420.91;;;5.39;41.49
44148;BME280;29810;55.848;37.368;2023-03-20T07:12:46;99421.41;;;5.69;41.19
44148;BME280;29810;55.848;37.368;2023-03-20T07:15:48;99411.50;;;5.97;40.71
44148;BME280;29810;55.848;37.368;2023-03-20T07:18:53;99412.94;;;6.17;40.45
44148;BME280;29810;55.848;37.368;2023-03-20T07:21:58;99405.19;;;6.18;40.30
44148;BME280;29810;55.848;37.368;2023-03-20T07:25:02;99412.00;;;6.22;39.80
44148;BME280;29810;55.848;37.368;2023-03-20T07:28:04;99407.81;;;6.13;40.30
44148;BME280;29810;55.848;37.368;2023-03-20T07:31:18;99409.56;;;6.11;40.39
44148;BME280;29810;55.848;37.368;2023-03-20T07:34:21;99407.84;;;6.12;40.03
44148;BME280;29810;55.848;37.368;2023-03-20T07:37:24;99401.16;;;5.99;40.41
44148;BME280;29810;55.848;37.368;2023-03-20T07:40:29;99387.25;;;6.04;40.63
44148;BME280;29810;55.848;37.368;2023-03-20T07:43:31;99402.16;;;5.88;40.60
44148;BME280;29810;55.848;37.368;2023-03-20T07:46:35;99406.34;;;5.99;40.90
44148;BME280;29810;55.848;37.368;2023-03-20T07:49:37;99402.91;;;5.95;41.11
44148;BME280;29810;55.848;37.368;2023-03-20T07:52:38;99389.06;;;5.97;40.81
44148;BME280;29810;55.848;37.368;2023-03-20T07:55:40;99396.66;;;6.10;40.60
44148;BME280;29810;55.848;37.368;2023-03-20T07:58:44;99389.50;;;6.26;40.45
44148;BME280;29810;55.848;37.368;2023-03-20T08:01:46;99387.53;;;6.42;40.42
44148;BME280;29810;55.848;37.368;2023-03-20T08:04:48;99379.53;;;6.54;39.99
44148;BME280;29810;55.848;37.368;2023-03-20T08:07:49;99378.41;;;6.68;39.35
44148;BME280;29810;55.848;37.368;2023-03-20T08:10:51;99380.97;;;6.71;38.87
44148;BME280;29810;55.848;37.368;2023-03-20T08:13:52;99372.97;;;6.82;38.71
44148;BME280;29810;55.848;37.368;2023-03-20T08:16:54;99376.19;;;6.94;38.06
44148;BME280;29810;55.848;37.368;2023-03-20T08:19:55;99378.09;;;6.86;37.46
44148;BME280;29810;55.848;37.368;2023-03-20T08:22:57;99375.13;;;7.05;37.29
44148;BME280;29810;55.848;37.368;2023-03-20T08:25:58;99378.34;;;7.18;36.97
44148;BME280;29810;55.848;37.368;2023-03-20T08:29:00;99363.38;;;7.31;36.58
44148;BME280;29810;55.848;37.368;2023-03-20T08:32:03;99369.28;;;7.36;36.56
44148;BME280;29810;55.848;37.368;2023-03-20T08:35:06;99371.16;;;7.29;36.19
44148;BME280;29810;55.848;37.368;2023-03-20T08:38:11;99367.34;;;7.05;35.57
44148;BME280;29810;55.848;37.368;2023-03-20T08:41:14;99372.91;;;6.85;35.17
44148;BME280;29810;55.848;37.368;2023-03-20T08:44:15;99366.38;;;6.67;35.79
44148;BME280;29810;55.848;37.368;2023-03-20T08:47:17;99358.84;;;6.53;35.44
44148;BME280;29810;55.848;37.368;2023-03-20T08:50:19;99359.75;;;6.50;35.67
44148;BME280;29810;55.848;37.368;2023-03-20T08:53:21;99343.53;;;6.40;35.96
44148;BME280;29810;55.848;37.368;2023-03-20T08:56:23;99345.28;;;6.38;35.68
44148;BME280;29810;55.848;37.368;2023-03-20T08:59:25;99353.59;;;6.56;36.06
44148;BME280;29810;55.848;37.368;2023-03-20T09:02:26;99342.22;;;6.65;36.00
44148;BME280;29810;55.848;37.368;2023-03-20T09:05:28;99350.50;;;6.82;35.92
44148;BME280;29810;55.848;37.368;2023-03-20T09:08:29;99353.84;;;6.89;35.41
44148;BME280;29810;55.848;37.368;2023-03-20T09:11:32;99351.22;;;6.90;35.53
44148;BME280;29810;55.848;37.368;2023-03-20T09:14:34;99348.34;;;7.04;35.77
44148;BME280;29810;55.848;37.368;2023-03-20T09:17:37;99342.81;;;7.21;35.52
44148;BME280;29810;55.848;37.368;2023-03-20T09:20:38;99336.81;;;7.19;35.25
44148;BME280;29810;55.848;37.368;2023-03-20T09:23:40;99339.41;;;7.19;35.80
44148;BME280;29810;55.848;37.368;2023-03-20T09:26:41;99334.53;;;7.04;35.71
44148;BME280;29810;55.848;37.368;2023-03-20T09:29:43;99331.88;;;7.07;35.93
44148;BME280;29810;55.848;37.368;2023-03-20T09:32:45;99327.19;;;7.24;35.81
44148;BME280;29810;55.848;37.368;2023-03-20T09:35:46;99317.53;;;7.31;35.49
44148;BME280;29810;55.848;37.368;2023-03-20T09:38:48;99318.19;;;7.41;34.94
44148;BME280;29810;55.848;37.368;2023-03-20T09:41:51;99306.34;;;7.67;34.82
44148;BME280;29810;55.848;37.368;2023-03-20T09:51:34;99301.41;;;7.93;32.80
44148;BME280;29810;55.848;37.368;2023-03-20T09:54:41;99296.47;;;8.17;32.42
44148;BME280;29810;55.848;37.368;2023-03-20T09:57:50;99289.63;;;8.15;31.97
44148;BME280;29810;55.848;37.368;2023-03-20T10:00:56;99289.19;;;8.32;31.75
44148;BME280;29810;55.848;37.368;2023-03-20T10:04:05;99287.25;;;8.38;31.57
44148;BME280;29810;55.848;37.368;2023-03-20T10:07:12;99284.56;;;8.41;30.97
44148;BME280;29810;55.848;37.368;2023-03-20T10:10:17;99281.12;;;8.41;30.71
44148;BME280;29810;55.848;37.368;2023-03-20T10:20:27;99275.47;;;8.59;30.76
44148;BME280;29810;55.848;37.368;2023-03-20T10:23:39;99251.56;;;8.45;29.87
44148;BME280;29810;55.848;37.368;2023-03-20T10:26:42;99273.03;;;8.53;29.19
44148;BME280;29810;55.848;37.368;2023-03-20T10:29:59;99266.00;;;8.57;29.43
44148;BME280;29810;55.848;37.368;2023-03-20T10:33:26;99230.87;;;8.42;28.40
44148;BME280;29810;55.848;37.368;2023-03-20T10:43:19;99249.03;;;8.43;28.37
44148;BME280;29810;55.848;37.368;2023-03-20T10:46:26;99251.56;;;8.47;28.13
44148;BME280;29810;55.848;37.368;2023-03-20T10:49:40;99244.44;;;8.20;27.89
44148;BME280;29810;55.848;37.368;2023-03-20T10:52:45;99250.78;;;8.41;28.19
44148;BME280;29810;55.848;37.368;2023-03-20T10:55:49;99244.66;;;8.44;27.93
44148;BME280;29810;55.848;37.368;2023-03-20T10:59:02;99239.25;;;8.53;28.12
44148;BME280;29810;55.848;37.368;2023-03-20T11:02:13;99238.19;;;8.60;27.64
44148;BME280;29810;55.848;37.368;2023-03-20T11:05:31;99234.75;;;8.60;27.76
44148;BME280;29810;55.848;37.368;2023-03-20T11:08:37;99224.59;;;8.82;28.23
44148;BME280;29810;55.848;37.368;2023-03-20T11:11:41;99235.22;;;8.73;27.82
44148;BME280;29810;55.848;37.368;2023-03-20T11:14:46;99223.94;;;8.74;28.28
44148;BME280;29810;55.848;37.368;2023-03-20T11:18:06;99216.84;;;8.79;28.27
44148;BME280;29810;55.848;37.368;2023-03-20T11:21:21;99222.87;;;8.81;27.92
44148;BME280;29810;55.848;37.368;2023-03-20T11:24:40;99222.22;;;8.74;28.49
44148;BME280;29810;55.848;37.368;2023-03-20T11:27:42;99223.53;;;8.88;28.70
44148;BME280;29810;55.848;37.368;2023-03-20T11:30:44;99212.69;;;8.73;28.47
44148;BME280;29810;55.848;37.368;2023-03-20T11:33:51;99209.59;;;8.60;28.93
44148;BME280;29810;55.848;37.368;2023-03-20T11:36:58;99206.19;;;8.58;28.96
44148;BME280;29810;55.848;37.368;2023-03-20T11:40:14;99203.19;;;8.72;28.73
44148;BME280;29810;55.848;37.368;2023-03-20T11:43:21;99193.37;;;8.82;29.19
44148;BME280;29810;55.848;37.368;2023-03-20T11:46:24;99187.31;;;8.82;29.14
44148;BME280;29810;55.848;37.368;2023-03-20T11:49:26;99185.31;;;8.90;29.50
44148;BME280;29810;55.848;37.368;2023-03-20T11:52:39;99180.06;;;8.93;29.50
44148;BME280;29810;55.848;37.368;2023-03-20T11:55:43;99171.00;;;9.05;29.34
44148;BME280;29810;55.848;37.368;2023-03-20T11:59:00;99171.34;;;8.94;29.52
44148;BME280;29810;55.848;37.368;2023-03-20T12:02:11;99171.44;;;8.91;29.67
44148;BME280;29810;55.848;37.368;2023-03-20T12:05:32;99168.00;;;9.17;29.38
44148;BME280;29810;55.848;37.368;2023-03-20T12:08:38;99158.31;;;8.95;30.25
44148;BME280;29810;55.848;37.368;2023-03-20T12:11:54;99160.16;;;8.92;30.31
44148;BME280;29810;55.848;37.368;2023-03-20T12:18:24;99152.22;;;8.95;31.21
44148;BME280;29810;55.848;37.368;2023-03-20T12:21:38;99124.03;;;9.09;31.23
44148;BME280;29810;55.848;37.368;2023-03-20T12:25:20;99136.03;;;8.87;30.92
44148;BME280;29810;55.848;37.368;2023-03-20T12:28:32;99132.00;;;9.05;31.32
44148;BME280;29810;55.848;37.368;2023-03-20T12:31:55;99131.41;;;8.97;32.45
44148;BME280;29810;55.848;37.368;2023-03-20T12:35:04;99123.50;;;9.00;32.67
44148;BME280;29810;55.848;37.368;2023-03-20T12:38:19;99119.91;;;9.04;31.84
44148;BME280;29810;55.848;37.368;2023-03-20T12:41:28;99117.87;;;9.12;32.04
44148;BME280;29810;55.848;37.368;2023-03-20T12:51:01;99111.50;;;9.22;32.26
44148;BME280;29810;55.848;37.368;2023-03-20T12:57:38;99104.38;;;9.27;32.78
44148;BME280;29810;55.848;37.368;2023-03-20T13:17:49;99090.69;;;8.95;34.51
44148;BME280;29810;55.848;37.368;2023-03-20T13:20:55;99084.78;;;8.90;34.90
44148;BME280;29810;55.848;37.368;2023-03-20T13:30:27;99074.16;;;8.98;34.89
44148;BME280;29810;55.848;37.368;2023-03-20T13:40:27;99066.81;;;9.09;35.40
44148;BME280;29810;55.848;37.368;2023-03-20T13:43:42;99063.25;;;9.14;35.75
44148;BME280;29810;55.848;37.368;2023-03-20T13:46:52;99058.03;;;9.14;36.63
44148;BME280;29810;55.848;37.368;2023-03-20T13:56:58;99056.78;;;9.25;36.32
44148;BME280;29810;55.848;37.368;2023-03-20T14:00:17;99051.41;;;9.30;35.98
44148;BME280;29810;55.848;37.368;2023-03-20T14:03:27;99042.19;;;8.94;36.63
44148;BME280;29810;55.848;37.368;2023-03-20T14:09:37;99033.72;;;8.61;37.51
44148;BME280;29810;55.848;37.368;2023-03-20T14:12:38;99034.97;;;8.49;37.52
44148;BME280;29810;55.848;37.368;2023-03-20T14:15:48;99026.63;;;8.38;37.76
44148;BME280;29810;55.848;37.368;2023-03-20T14:19:04;99028.88;;;8.20;37.93
44148;BME280;29810;55.848;37.368;2023-03-20T14:22:14;99026.34;;;8.19;38.35
44148;BME280;29810;55.848;37.368;2023-03-20T14:25:17;99028.16;;;8.15;38.84
44148;BME280;29810;55.848;37.368;2023-03-20T14:28:23;99017.94;;;8.10;38.90
44148;BME280;29810;55.848;37.368;2023-03-20T14:31:26;99021.97;;;8.19;38.68
44148;BME280;29810;55.848;37.368;2023-03-20T14:34:46;99014.72;;;8.31;38.98
44148;BME280;29810;55.848;37.368;2023-03-20T14:41:14;99011.50;;;8.52;38.81
44148;BME280;29810;55.848;37.368;2023-03-20T14:48:15;99006.72;;;8.67;39.21
44148;BME280;29810;55.848;37.368;2023-03-20T14:54:31;99016.97;;;8.41;39.81
44148;BME280;29810;55.848;37.368;2023-03-20T14:57:33;99011.34;;;8.28;39.97
44148;BME280;29810;55.848;37.368;2023-03-20T15:00:44;98980.34;;;7.94;40.05
44148;BME280;29810;55.848;37.368;2023-03-20T15:03:53;99020.88;;;7.98;40.66
44148;BME280;29810;55.848;37.368;2023-03-20T15:06:59;99010.16;;;7.81;40.88
44148;BME280;29810;55.848;37.368;2023-03-20T15:10:03;99004.75;;;7.88;41.07
44148;BME280;29810;55.848;37.368;2023-03-20T15:13:06;99009.09;;;7.86;40.98
44148;BME280;29810;55.848;37.368;2023-03-20T15:16:11;98998.91;;;7.80;41.66
44148;BME280;29810;55.848;37.368;2023-03-20T15:19:17;99003.25;;;7.79;42.29
44148;BME280;29810;55.848;37.368;2023-03-20T15:22:19;98997.28;;;7.76;41.65
44148;BME280;29810;55.848;37.368;2023-03-20T15:25:27;98969.28;;;7.57;41.26
44148;BME280;29810;55.848;37.368;2023-03-20T15:28:29;98999.09;;;7.74;41.96
44148;BME280;29810;55.848;37.368;2023-03-20T15:31:33;98983.69;;;7.68;42.24
44148;BME280;29810;55.848;37.368;2023-03-20T15:34:38;98993.97;;;7.72;42.42
44148;BME280;29810;55.848;37.368;2023-03-20T15:37:43;98996.63;;;7.69;42.48
44148;BME280;29810;55.848;37.368;2023-03-20T15:40:46;98995.09;;;7.62;42.37
44148;BME280;29810;55.848;37.368;2023-03-20T15:43:48;99003.94;;;7.55;42.44
44148;BME280;29810;55.848;37.368;2023-03-20T15:47:01;98998.91;;;7.49;42.75
44148;BME280;29810;55.848;37.368;2023-03-20T15:50:04;99005.88;;;7.48;43.77
44148;BME280;29810;55.848;37.368;2023-03-20T15:53:07;99005.34;;;7.35;44.42
44148;BME280;29810;55.848;37.368;2023-03-20T15:56:14;99008.22;;;7.24;45.59
44148;BME280;29810;55.848;37.368;2023-03-20T15:59:20;99011.91;;;7.16;46.42
44148;BME280;29810;55.848;37.368;2023-03-20T16:02:26;99013.72;;;7.13;45.89
44148;BME280;29810;55.848;37.368;2023-03-20T16:05:31;99012.03;;;7.11;46.29
44148;BME280;29810;55.848;37.368;2023-03-20T16:08:34;99013.06;;;7.04;46.53
44148;BME280;29810;55.848;37.368;2023-03-20T16:11:41;99012.44;;;6.95;46.54
44148;BME280;29810;55.848;37.368;2023-03-20T16:14:48;99006.56;;;6.87;47.24
44148;BME280;29810;55.848;37.368;2023-03-20T16:17:54;99006.09;;;6.71;47.23
44148;BME280;29810;55.848;37.368;2023-03-20T16:20:59;99009.72;;;6.66;47.75
44148;BME280;29810;55.848;37.368;2023-03-20T16:24:09;99003.03;;;6.55;48.03
44148;BME280;29810;55.848;37.368;2023-03-20T16:27:27;99014.41;;;6.48;48.74
44148;BME280;29810;55.848;37.368;2023-03-20T16:30:34;99019.06;;;6.35;48.93
44148;BME280;29810;55.848;37.368;2023-03-20T16:33:37;99017.66;;;6.20;49.31
44148;BME280;29810;55.848;37.368;2023-03-20T16:36:39;99017.94;;;6.06;49.88
44148;BME280;29810;55.848;37.368;2023-03-20T16:39:41;99015.47;;;6.02;50.10
44148;BME280;29810;55.848;37.368;2023-03-20T16:42:43;99008.75;;;5.91;50.01
44148;BME280;29810;55.848;37.368;2023-03-20T16:45:51;99013.13;;;5.88;50.19
44148;BME280;29810;55.848;37.368;2023-03-20T16:48:56;99008.00;;;5.86;51.07
44148;BME280;29810;55.848;37.368;2023-03-20T16:52:00;98997.69;;;5.85;50.85
44148;BME280;29810;55.848;37.368;2023-03-20T16:55:03;99000.44;;;5.77;51.23
44148;BME280;29810;55.848;37.368;2023-03-20T16:58:05;99002.13;;;5.78;51.13
44148;BME280;29810;55.848;37.368;2023-03-20T17:01:14;98994.50;;;5.72;51.16
44148;BME280;29810;55.848;37.368;2023-03-20T17:04:31;98997.81;;;5.78;51.79
44148;BME280;29810;55.848;37.368;2023-03-20T17:07:34;99002.03;;;5.83;51.51
44148;BME280;29810;55.848;37.368;2023-03-20T17:10:36;99000.97;;;5.91;51.16
44148;BME280;29810;55.848;37.368;2023-03-20T17:13:40;99002.00;;;5.84;51.24
44148;BME280;29810;55.848;37.368;2023-03-20T17:16:41;98996.09;;;5.79;51.43
44148;BME280;29810;55.848;37.368;2023-03-20T17:19:44;99002.25;;;5.72;51.56
44148;BME280;29810;55.848;37.368;2023-03-20T17:22:46;99003.13;;;5.71;51.87
44148;BME280;29810;55.848;37.368;2023-03-20T17:25:49;98992.94;;;5.64;51.91
44148;BME280;29810;55.848;37.368;2023-03-20T17:28:53;98998.84;;;5.70;51.96
44148;BME280;29810;55.848;37.368;2023-03-20T17:31:58;98997.34;;;5.59;51.95
44148;BME280;29810;55.848;37.368;2023-03-20T17:35:00;98992.97;;;5.61;52.25
44148;BME280;29810;55.848;37.368;2023-03-20T17:38:02;98993.09;;;5.57;52.26
44148;BME280;29810;55.848;37.368;2023-03-20T17:41:04;98981.09;;;5.51;52.23
44148;BME280;29810;55.848;37.368;2023-03-20T17:44:07;98997.47;;;5.53;52.39
44148;BME280;29810;55.848;37.368;2023-03-20T17:47:15;98978.72;;;5.42;52.52
44148;BME280;29810;55.848;37.368;2023-03-20T17:50:23;98987.13;;;5.53;53.07
44148;BME280;29810;55.848;37.368;2023-03-20T17:53:29;98976.88;;;5.47;52.81
44148;BME280;29810;55.848;37.368;2023-03-20T17:56:32;98972.56;;;5.47;52.76
44148;BME280;29810;55.848;37.368;2023-03-20T17:59:34;98987.25;;;5.45;52.70
44148;BME280;29810;55.848;37.368;2023-03-20T18:02:35;98973.59;;;5.39;52.83
44148;BME280;29810;55.848;37.368;2023-03-20T18:05:37;98981.28;;;5.42;52.78
44148;BME280;29810;55.848;37.368;2023-03-20T18:08:39;98980.53;;;5.37;53.23
44148;BME280;29810;55.848;37.368;2023-03-20T18:11:41;98979.87;;;5.27;53.29
44148;BME280;29810;55.848;37.368;2023-03-20T18:14:44;98976.50;;;5.22;53.42